< < Back
Terminal Aerodrome Forecast


Current Version              Previous Versions:   1  2  3  4  5  6  7  8  9  

Terminal Aerodrome Forecast

206
FTUS42 KGSP 021740
TAFAND
TAF
KAND 021740Z 0218/0318 22009G16KT P6SM VCTS BKN040CB
      TEMPO 0218/0222 4SM -TSRA OVC025CB
     FM030000 22006KT P6SM -SHRA VCTS OVC050CB
     FM030400 22006KT P6SM -SHRA OVC025 PROB30 0304/0309 4SM TSRA
      OVC015CB
     FM030900 21006KT P6SM OVC020
     FM031300 23006KT P6SM BKN008
     FM031600 24009G16KT P6SM BKN035=



Latest METAR

896
SAUS70 KWBC 030700 RRE
MTRAND
METAR KAND 030656Z AUTO 18003KT 8SM RA BKN075 OVC100 19/18 A2987 RMK AO2
SLP106 P0003 T01890178


USA.gov is the U.S. government's official web portal to all federal, state and local government web resources and services.